createdAt,value
2018-09-21T00:01:53.799Z,3.03
2018-09-21T00:04:22.878Z,2.87
2018-09-21T00:06:53.077Z,2.43
2018-09-21T00:09:22.598Z,2.33
2018-09-21T00:11:51.536Z,2.83
2018-09-21T00:14:20.519Z,2.83
2018-09-21T00:16:49.565Z,2.60
2018-09-21T00:19:18.539Z,2.63
2018-09-21T00:21:47.566Z,3.20
2018-09-21T00:24:16.562Z,2.90
2018-09-21T00:26:45.786Z,2.60
2018-09-21T00:29:15.065Z,3.00
2018-09-21T00:31:44.081Z,3.03
2018-09-21T00:34:13.837Z,2.37
2018-09-21T00:36:45.705Z,3.60
2018-09-21T00:39:14.819Z,2.70
2018-09-21T00:41:43.872Z,2.90
2018-09-21T00:44:13.117Z,2.77
2018-09-21T00:46:42.454Z,2.93
2018-09-21T00:49:11.774Z,2.53
2018-09-21T00:51:40.945Z,3.07
2018-09-21T00:54:10.093Z,2.70
2018-09-21T00:56:39.561Z,2.93
2018-09-21T00:59:08.797Z,2.80
2018-09-21T01:01:38.032Z,2.77
2018-09-21T01:04:07.334Z,3.00
2018-09-21T01:06:36.409Z,2.73
2018-09-21T01:09:08.454Z,2.67
2018-09-21T01:11:37.609Z,2.80
2018-09-21T01:14:06.497Z,2.20
2018-09-21T01:16:35.634Z,2.53
2018-09-21T01:19:05.398Z,2.83
2018-09-21T01:21:34.481Z,2.60
2018-09-21T01:24:04.033Z,3.03
2018-09-21T01:26:33.434Z,2.90
2018-09-21T01:29:02.755Z,2.90
2018-09-21T01:31:32.157Z,2.50
2018-09-21T01:34:01.236Z,2.83
2018-09-21T01:36:30.199Z,3.00
2018-09-21T01:38:59.245Z,2.40
2018-09-21T01:41:28.350Z,2.80
2018-09-21T01:43:57.621Z,2.70
2018-09-21T01:46:26.953Z,2.87
2018-09-21T01:48:56.384Z,2.60
2018-09-21T01:51:25.497Z,3.10
2018-09-21T01:53:54.389Z,2.33
2018-09-21T01:56:23.763Z,2.70
2018-09-21T01:58:52.913Z,3.23
2018-09-21T02:01:22.021Z,2.80
2018-09-21T02:03:51.373Z,3.20
2018-09-21T02:06:20.289Z,2.80
2018-09-21T02:08:49.321Z,2.40
2018-09-21T02:11:18.305Z,2.70
2018-09-21T02:13:47.393Z,2.63
2018-09-21T02:16:16.262Z,2.80
2018-09-21T02:18:45.636Z,2.70
2018-09-21T02:21:14.681Z,2.47
2018-09-21T02:23:43.723Z,2.40
2018-09-21T02:26:12.847Z,2.33
2018-09-21T02:28:41.920Z,2.63
2018-09-21T02:31:11.012Z,2.50
2018-09-21T02:33:40.509Z,2.30
2018-09-21T02:36:09.718Z,2.80
2018-09-21T02:38:38.845Z,2.77
2018-09-21T02:41:08.324Z,2.50
2018-09-21T02:43:37.723Z,2.73
2018-09-21T02:46:06.973Z,2.50
2018-09-21T02:48:36.316Z,2.80
2018-09-21T02:51:05.698Z,2.40
2018-09-21T02:53:35.000Z,2.30
2018-09-21T02:56:03.995Z,3.00
2018-09-21T02:58:33.162Z,2.57
2018-09-21T03:01:02.146Z,2.27
2018-09-21T03:03:31.211Z,2.47
2018-09-21T03:06:00.105Z,2.30
2018-09-21T03:08:29.165Z,2.50
2018-09-21T03:10:58.602Z,2.23
2018-09-21T03:13:27.789Z,2.63
2018-09-21T03:15:56.810Z,2.37
2018-09-21T03:18:25.826Z,2.67
2018-09-21T03:20:54.782Z,2.53
2018-09-21T03:23:23.745Z,3.03
2018-09-21T03:25:52.684Z,2.40
2018-09-21T03:28:21.831Z,2.40
2018-09-21T03:30:51.180Z,2.20
2018-09-21T03:33:20.399Z,2.20
2018-09-21T03:35:49.671Z,2.73
2018-09-21T03:38:18.728Z,2.37
2018-09-21T03:40:47.654Z,3.03
2018-09-21T03:43:16.750Z,2.90
2018-09-21T03:45:45.781Z,2.73
2018-09-21T03:48:14.841Z,2.60
2018-09-21T03:50:44.010Z,2.43
2018-09-21T03:53:13.057Z,2.50
2018-09-21T03:55:42.275Z,2.50
2018-09-21T03:58:11.232Z,2.70
2018-09-21T04:00:40.182Z,2.83
2018-09-21T04:03:09.212Z,1.87
2018-09-21T04:05:38.203Z,2.93
2018-09-21T04:08:07.214Z,2.70
2018-09-21T04:10:36.205Z,2.73
2018-09-21T04:13:05.198Z,2.60
2018-09-21T04:15:34.598Z,2.60
2018-09-21T04:18:03.733Z,3.30
2018-09-21T04:20:32.999Z,2.77
2018-09-21T04:23:03.053Z,2.80
2018-09-21T04:25:32.701Z,2.67
2018-09-21T04:28:02.260Z,2.40
2018-09-21T04:30:31.802Z,2.40
2018-09-21T04:33:00.825Z,3.00
2018-09-21T04:35:29.773Z,2.27
2018-09-21T04:37:59.048Z,2.90
2018-09-21T04:40:28.116Z,2.93
2018-09-21T04:42:57.002Z,2.83
2018-09-21T04:45:26.197Z,2.93
2018-09-21T04:47:55.381Z,2.40
2018-09-21T04:50:24.394Z,3.03
2018-09-21T04:52:53.783Z,3.03
2018-09-21T04:55:23.017Z,2.67
2018-09-21T04:57:52.254Z,2.67
2018-09-21T05:00:21.284Z,2.80
2018-09-21T05:02:50.244Z,2.70
2018-09-21T05:05:19.166Z,3.00
2018-09-21T05:07:48.283Z,2.60
2018-09-21T05:10:17.455Z,2.53
2018-09-21T05:12:46.630Z,2.80
2018-09-21T05:15:15.882Z,3.10
2018-09-21T05:17:44.762Z,3.33
2018-09-21T05:20:13.818Z,2.80
2018-09-21T05:22:42.982Z,2.80
2018-09-21T05:25:12.289Z,2.80
2018-09-21T05:27:45.271Z,3.07
2018-09-21T05:30:15.269Z,3.17
2018-09-21T05:32:44.384Z,3.30
2018-09-21T05:35:13.378Z,3.03
2018-09-21T05:37:42.550Z,3.37
2018-09-21T05:40:11.557Z,3.33
2018-09-21T05:42:43.630Z,2.97
2018-09-21T05:45:12.621Z,3.13
2018-09-21T05:47:41.609Z,4.43
2018-09-21T05:50:10.660Z,3.40
2018-09-21T05:52:39.692Z,3.50
2018-09-21T05:55:08.838Z,3.67
2018-09-21T05:57:38.059Z,3.13
2018-09-21T06:00:07.792Z,3.37
2018-09-21T06:02:37.127Z,3.50
2018-09-21T06:05:08.641Z,3.60
2018-09-21T06:07:38.203Z,5.13
2018-09-21T06:10:07.761Z,5.83
2018-09-21T06:12:38.151Z,5.20
2018-09-21T06:15:08.217Z,5.33
2018-09-21T06:17:37.353Z,4.53
2018-09-21T06:20:12.108Z,4.60
2018-09-21T06:22:44.851Z,4.90
2018-09-21T06:25:05.138Z,4.47
2018-09-21T06:27:35.180Z,4.60
2018-09-21T06:30:04.560Z,4.03
2018-09-21T06:32:33.629Z,4.27
2018-09-21T06:35:03.541Z,4.20
2018-09-21T06:37:32.596Z,4.70
2018-09-21T06:40:01.599Z,4.30
2018-09-21T06:42:30.671Z,4.37
2018-09-21T06:44:59.621Z,5.10
2018-09-21T06:47:29.006Z,4.10
2018-09-21T06:49:58.342Z,4.83
2018-09-21T06:52:27.494Z,4.60
2018-09-21T06:54:56.851Z,4.47
2018-09-21T06:57:26.129Z,4.30
2018-09-21T06:59:55.021Z,4.07
2018-09-21T07:02:24.349Z,4.30
2018-09-21T07:04:53.513Z,4.13
2018-09-21T07:07:23.025Z,4.47
2018-09-21T07:09:52.088Z,5.30
2018-09-21T07:12:21.354Z,4.43
2018-09-21T07:14:50.213Z,5.10
2018-09-21T07:17:19.245Z,4.47
2018-09-21T07:19:48.806Z,4.33
2018-09-21T07:22:17.928Z,4.67
2018-09-21T07:24:46.829Z,4.47
2018-09-21T07:27:16.051Z,4.87
2018-09-21T07:29:45.253Z,4.30
2018-09-21T07:32:14.808Z,4.57
2018-09-21T07:34:43.765Z,4.30
2018-09-21T07:37:12.844Z,5.00
2018-09-21T07:39:41.808Z,4.97
2018-09-21T07:42:10.894Z,4.00
2018-09-21T07:44:40.015Z,5.23
2018-09-21T07:47:09.446Z,5.10
2018-09-21T07:49:38.784Z,5.40
2018-09-21T07:52:08.892Z,5.63
2018-09-21T07:54:38.106Z,5.60
2018-09-21T07:57:07.288Z,5.70
2018-09-21T07:59:36.720Z,5.97
2018-09-21T08:02:06.172Z,6.17
2018-09-21T08:04:35.169Z,5.90
2018-09-21T08:07:04.628Z,6.50
2018-09-21T08:09:33.633Z,6.00
2018-09-21T08:12:02.765Z,6.23
2018-09-21T08:14:31.610Z,6.73
2018-09-21T08:17:00.693Z,6.07
2018-09-21T08:19:29.765Z,6.73
2018-09-21T08:22:02.720Z,6.20
2018-09-21T08:24:31.787Z,6.27
2018-09-21T08:27:01.034Z,6.47
2018-09-21T08:29:30.273Z,7.10
2018-09-21T08:31:59.307Z,6.63
2018-09-21T08:34:28.887Z,5.97
2018-09-21T08:36:57.907Z,6.37
2018-09-21T08:39:26.786Z,6.70
2018-09-21T08:41:55.868Z,5.90
2018-09-21T08:44:24.801Z,7.10
2018-09-21T08:46:53.978Z,6.87
2018-09-21T08:49:23.454Z,6.67
2018-09-21T08:51:52.514Z,6.60
2018-09-21T08:54:21.797Z,6.33
2018-09-21T08:56:50.965Z,6.50
2018-09-21T08:59:20.044Z,7.10
2018-09-21T09:01:49.260Z,7.00
2018-09-21T09:04:18.354Z,6.00
2018-09-21T09:06:47.266Z,6.67
2018-09-21T09:09:16.731Z,6.60
2018-09-21T09:11:45.941Z,6.47
2018-09-21T09:14:14.825Z,6.27
2018-09-21T09:16:43.861Z,6.83
2018-09-21T09:19:12.831Z,6.43
2018-09-21T09:21:42.169Z,6.30
2018-09-21T09:24:11.300Z,6.53
2018-09-21T09:26:40.472Z,6.40
2018-09-21T09:29:09.464Z,6.20
2018-09-21T09:31:38.792Z,5.97
2018-09-21T09:34:08.025Z,6.50
2018-09-21T09:36:37.069Z,5.77
2018-09-21T09:39:09.734Z,6.60
2018-09-21T09:41:38.826Z,5.73
2018-09-21T09:44:07.663Z,6.47
2018-09-21T09:46:36.849Z,6.53
2018-09-21T09:49:06.165Z,6.27
2018-09-21T09:51:35.133Z,6.37
2018-09-21T09:54:04.784Z,6.37
2018-09-21T09:56:34.082Z,5.83
2018-09-21T09:59:03.288Z,5.93
2018-09-21T10:01:32.496Z,5.93
2018-09-21T10:04:01.509Z,6.47
2018-09-21T10:06:31.185Z,6.13
2018-09-21T10:09:00.143Z,5.67
2018-09-21T10:11:29.053Z,5.93
2018-09-21T10:13:58.467Z,5.73
2018-09-21T10:16:27.453Z,6.00
2018-09-21T10:18:57.994Z,5.70
2018-09-21T10:21:28.763Z,5.90
2018-09-21T10:23:58.072Z,6.33
2018-09-21T10:26:27.197Z,6.00
2018-09-21T10:28:56.374Z,6.00
2018-09-21T10:31:25.730Z,6.17
2018-09-21T10:33:54.866Z,6.30
2018-09-21T10:36:24.272Z,6.60
2018-09-21T10:38:53.844Z,6.53
2018-09-21T10:41:22.878Z,6.00
2018-09-21T10:43:52.025Z,6.97
2018-09-21T10:46:21.011Z,5.63
2018-09-21T10:48:50.039Z,6.60
2018-09-21T10:51:19.143Z,6.30
2018-09-21T10:53:48.389Z,6.10
2018-09-21T10:56:17.547Z,6.10
2018-09-21T10:58:46.905Z,6.30
2018-09-21T11:01:16.445Z,6.40
2018-09-21T11:03:45.706Z,6.07
2018-09-21T11:06:14.754Z,6.57
2018-09-21T11:08:43.730Z,6.87
2018-09-21T11:11:13.023Z,6.37
2018-09-21T11:13:41.966Z,6.87
2018-09-21T11:16:11.293Z,6.57
2018-09-21T11:18:40.293Z,6.97
2018-09-21T11:21:09.407Z,6.53
2018-09-21T11:23:38.890Z,6.77
2018-09-21T11:26:07.934Z,6.77
2018-09-21T11:28:36.883Z,6.90
2018-09-21T11:31:05.889Z,7.20
2018-09-21T11:33:35.090Z,7.03
2018-09-21T11:36:04.263Z,7.23
2018-09-21T11:38:33.408Z,6.33
2018-09-21T11:41:02.530Z,7.00
2018-09-21T11:43:32.419Z,6.77
2018-09-21T11:46:01.957Z,6.70
2018-09-21T11:48:31.009Z,6.73
2018-09-21T11:50:59.937Z,7.03
2018-09-21T11:53:28.845Z,7.00
2018-09-21T11:55:57.985Z,6.57
2018-09-21T11:58:27.021Z,6.80
2018-09-21T12:00:56.362Z,7.43
2018-09-21T12:03:25.865Z,7.43
2018-09-21T12:05:54.810Z,6.87
2018-09-21T12:08:23.874Z,8.27
2018-09-21T12:10:52.769Z,7.70
2018-09-21T12:13:22.789Z,7.23
2018-09-21T12:15:51.818Z,7.23
2018-09-21T12:18:20.684Z,7.00
2018-09-21T12:20:49.783Z,7.27
2018-09-21T12:23:19.049Z,7.07
2018-09-21T12:25:48.074Z,6.20
2018-09-21T12:28:17.150Z,7.07
2018-09-21T12:30:46.272Z,6.90
2018-09-21T12:33:15.643Z,6.50
2018-09-21T12:35:44.575Z,6.73
2018-09-21T12:38:13.595Z,6.43
2018-09-21T12:40:42.715Z,5.67
2018-09-21T12:43:12.290Z,7.13
2018-09-21T12:45:41.562Z,6.20
2018-09-21T12:48:10.849Z,6.20
2018-09-21T12:50:39.965Z,6.33
2018-09-21T12:53:09.332Z,6.70
2018-09-21T12:55:38.481Z,6.77
2018-09-21T12:58:08.000Z,5.67
2018-09-21T13:00:42.187Z,6.23
2018-09-21T13:03:11.617Z,6.53
2018-09-21T13:05:40.439Z,9.33
2018-09-21T13:08:09.741Z,7.73
2018-09-21T13:10:38.957Z,7.13
2018-09-21T13:13:08.345Z,7.73
2018-09-21T13:15:37.462Z,8.20
2018-09-21T13:18:06.449Z,7.30
2018-09-21T13:20:35.632Z,7.10
2018-09-21T13:23:05.634Z,6.70
2018-09-21T13:25:35.246Z,6.80
2018-09-21T13:28:04.240Z,7.83
2018-09-21T13:30:33.341Z,7.57
2018-09-21T13:33:02.856Z,6.80
2018-09-21T13:35:32.151Z,7.00
2018-09-21T13:38:01.681Z,7.57
2018-09-21T13:40:30.707Z,6.47
2018-09-21T13:43:01.220Z,8.10
2018-09-21T13:45:30.217Z,7.13
2018-09-21T13:47:59.355Z,7.73
2018-09-21T13:50:28.689Z,7.97
2018-09-21T13:52:57.899Z,7.67
2018-09-21T13:55:27.281Z,7.87
2018-09-21T13:57:56.816Z,7.90
2018-09-21T14:00:26.087Z,8.77
2018-09-21T14:02:57.081Z,8.57
2018-09-21T14:05:26.362Z,8.90
2018-09-21T14:07:55.842Z,9.63
2018-09-21T14:10:25.347Z,8.73
2018-09-21T14:12:54.494Z,9.33
2018-09-21T14:15:24.368Z,10.10
2018-09-21T14:17:53.625Z,8.63
2018-09-21T14:20:22.743Z,8.90
2018-09-21T14:22:52.087Z,8.43
2018-09-21T14:25:21.734Z,9.60
2018-09-21T14:27:50.891Z,8.97
2018-09-21T14:30:20.331Z,9.40
2018-09-21T14:32:49.546Z,10.57
2018-09-21T14:35:20.444Z,9.60
2018-09-21T14:37:49.835Z,8.90
2018-09-21T14:40:19.063Z,9.40
2018-09-21T14:42:48.585Z,9.40
2018-09-21T14:45:18.431Z,10.53
2018-09-21T14:47:47.625Z,9.80
2018-09-21T14:50:16.729Z,9.87
2018-09-21T14:52:45.613Z,10.03
2018-09-21T14:55:15.012Z,9.27
2018-09-21T14:57:43.936Z,8.70
2018-09-21T15:00:13.313Z,8.70
2018-09-21T15:02:42.347Z,9.83
2018-09-21T15:05:11.220Z,9.53
2018-09-21T15:07:40.313Z,9.90
2018-09-21T15:10:09.858Z,9.73
2018-09-21T15:12:40.472Z,10.00
2018-09-21T15:15:09.704Z,9.00
2018-09-21T15:17:39.093Z,10.10
2018-09-21T15:20:08.408Z,9.90
2018-09-21T15:22:38.324Z,11.17
2018-09-21T15:25:07.589Z,9.10
2018-09-21T15:27:36.850Z,11.00
2018-09-21T15:30:06.162Z,10.73
2018-09-21T15:32:35.496Z,10.50
2018-09-21T15:35:04.917Z,10.07
2018-09-21T15:37:34.078Z,10.27
2018-09-21T15:40:03.416Z,9.53
2018-09-21T15:42:32.353Z,9.90
2018-09-21T15:45:01.426Z,10.80
2018-09-21T15:47:30.743Z,10.40
2018-09-21T15:49:59.933Z,9.57
2018-09-21T15:52:29.157Z,10.50
2018-09-21T15:54:58.368Z,11.13
2018-09-21T15:57:27.550Z,10.50
2018-09-21T15:59:58.110Z,10.80
2018-09-21T16:02:27.062Z,10.57
2018-09-21T16:04:55.956Z,10.03
2018-09-21T16:07:25.260Z,10.77
2018-09-21T16:09:54.369Z,10.50
2018-09-21T16:12:23.662Z,10.77
2018-09-21T16:14:52.699Z,10.70
2018-09-21T16:17:21.989Z,9.60
2018-09-21T16:19:51.149Z,10.30
2018-09-21T16:22:20.221Z,11.13
2018-09-21T16:24:49.782Z,11.03
2018-09-21T16:27:19.078Z,9.97
2018-09-21T16:29:48.079Z,9.80
2018-09-21T16:32:17.410Z,11.57
2018-09-21T16:34:46.474Z,10.33
2018-09-21T16:37:15.502Z,10.20
2018-09-21T16:39:44.526Z,9.80
2018-09-21T16:42:13.777Z,9.37
2018-09-21T16:44:42.733Z,8.77
2018-09-21T16:47:12.029Z,9.07
2018-09-21T16:49:41.345Z,9.50
2018-09-21T16:52:10.645Z,7.07
2018-09-21T16:54:39.707Z,6.00
2018-09-21T16:57:08.880Z,4.80
2018-09-21T16:59:38.245Z,3.67
2018-09-21T17:02:07.274Z,3.60
2018-09-21T17:04:37.307Z,2.90
2018-09-21T17:07:06.954Z,2.13
2018-09-21T17:09:36.612Z,2.17
2018-09-21T17:12:05.606Z,1.80
2018-09-21T17:14:34.689Z,1.87
2018-09-21T17:17:03.610Z,1.47
2018-09-21T17:19:32.893Z,1.50
2018-09-21T17:22:01.998Z,1.30
2018-09-21T17:24:31.179Z,1.23
2018-09-21T17:27:00.669Z,1.47
2018-09-21T17:29:29.864Z,1.30
2018-09-21T17:31:59.242Z,1.40
2018-09-21T17:34:29.098Z,1.40
2018-09-21T17:36:58.801Z,1.40
2018-09-21T17:39:29.213Z,1.10
2018-09-21T17:41:58.156Z,1.23
2018-09-21T17:44:27.216Z,1.20
2018-09-21T17:46:56.163Z,1.47
2018-09-21T17:49:25.995Z,1.20
2018-09-21T17:51:55.132Z,1.50
2018-09-21T17:54:24.441Z,1.20
2018-09-21T17:56:54.033Z,1.37
2018-09-21T17:59:22.985Z,1.60
2018-09-21T18:01:52.503Z,1.50
2018-09-21T18:04:21.909Z,1.37
2018-09-21T18:06:51.150Z,1.50
2018-09-21T18:09:20.300Z,1.30
2018-09-21T18:11:50.117Z,1.70
2018-09-21T18:14:19.611Z,1.37
2018-09-21T18:16:49.212Z,1.30
2018-09-21T18:19:18.229Z,1.60
2018-09-21T18:21:47.331Z,1.37
2018-09-21T18:24:16.815Z,1.80
2018-09-21T18:26:46.257Z,1.53
2018-09-21T18:29:15.609Z,1.57
2018-09-21T18:31:45.239Z,1.50
2018-09-21T18:34:15.017Z,1.60
2018-09-21T18:36:44.487Z,1.60
2018-09-21T18:39:13.650Z,1.63
2018-09-21T18:41:43.163Z,1.73
2018-09-21T18:44:12.278Z,1.37
2018-09-21T18:46:41.980Z,1.90
2018-09-21T18:49:11.196Z,1.50
2018-09-21T18:51:40.816Z,2.17
2018-09-21T18:54:09.905Z,2.27
2018-09-21T18:56:39.093Z,2.17
2018-09-21T18:59:08.773Z,2.30
2018-09-21T19:01:38.198Z,2.13
2018-09-21T19:04:07.233Z,2.23
2018-09-21T19:06:36.184Z,2.20
2018-09-21T19:09:07.695Z,2.33
2018-09-21T19:11:36.956Z,2.17
2018-09-21T19:14:06.323Z,2.73
2018-09-21T19:16:35.306Z,2.60
2018-09-21T19:19:04.415Z,2.17
2018-09-21T19:21:33.617Z,2.50
2018-09-21T19:24:03.076Z,2.27
2018-09-21T19:26:32.385Z,2.23
2018-09-21T19:29:02.030Z,2.77
2018-09-21T19:31:31.549Z,2.30
2018-09-21T19:34:00.932Z,2.60
2018-09-21T19:36:30.073Z,2.97
2018-09-21T19:39:01.523Z,2.13
2018-09-21T19:41:31.040Z,2.00
2018-09-21T19:44:00.243Z,2.80
2018-09-21T19:46:29.756Z,2.27
2018-09-21T19:48:59.961Z,2.40
2018-09-21T19:51:29.139Z,2.23
2018-09-21T19:53:58.343Z,2.30
2018-09-21T19:56:27.850Z,2.40
2018-09-21T19:58:56.851Z,2.10
2018-09-21T20:01:25.915Z,2.10
2018-09-21T20:03:55.187Z,2.17
2018-09-21T20:06:25.320Z,1.93
2018-09-21T20:08:54.569Z,1.93
2018-09-21T20:11:24.633Z,1.90
2018-09-21T20:13:54.064Z,1.97
2018-09-21T20:16:23.373Z,1.80
2018-09-21T20:18:52.706Z,1.90
2018-09-21T20:21:21.953Z,2.27
2018-09-21T20:23:51.187Z,2.10
2018-09-21T20:26:20.705Z,2.10
2018-09-21T20:28:49.995Z,1.90
2018-09-21T20:33:26.541Z,2.00
2018-09-21T20:35:55.965Z,2.00
2018-09-21T20:38:25.081Z,1.63
2018-09-21T20:40:55.180Z,1.80
2018-09-21T20:43:24.481Z,1.87
2018-09-21T20:45:54.871Z,1.70
2018-09-21T20:48:24.356Z,1.90
2018-09-21T20:50:53.569Z,1.60
2018-09-21T20:53:23.466Z,1.70
2018-09-21T20:55:52.638Z,1.87
2018-09-21T20:58:21.617Z,1.80
2018-09-21T21:00:50.857Z,1.70
2018-09-21T21:03:20.012Z,1.93
2018-09-21T21:05:49.525Z,1.83
2018-09-21T21:08:19.347Z,1.90
2018-09-21T21:10:48.389Z,1.80
2018-09-21T21:13:17.692Z,1.87
2018-09-21T21:15:46.721Z,1.73
2018-09-21T21:18:15.729Z,1.80
2018-09-21T21:20:44.658Z,2.40
2018-09-21T21:23:13.833Z,1.63
2018-09-21T21:25:42.997Z,1.80
2018-09-21T21:28:12.873Z,1.80
2018-09-21T21:30:45.680Z,2.23
2018-09-21T21:33:16.217Z,2.07
2018-09-21T21:35:45.940Z,1.70
2018-09-21T21:38:15.216Z,1.73
2018-09-21T21:40:44.883Z,2.30
2018-09-21T21:43:14.078Z,1.73
2018-09-21T21:45:43.222Z,1.90
2018-09-21T21:48:12.573Z,1.80
2018-09-21T21:50:41.740Z,1.90
2018-09-21T21:53:10.998Z,2.17
2018-09-21T21:55:40.098Z,1.60
2018-09-21T21:58:09.069Z,2.10
2018-09-21T22:00:43.337Z,1.87
2018-09-21T22:03:12.273Z,1.73
2018-09-21T22:05:41.469Z,2.10
2018-09-21T22:08:10.585Z,2.13
2018-09-21T22:10:39.561Z,2.23
2018-09-21T22:13:13.722Z,1.87
2018-09-21T22:15:42.770Z,1.97
2018-09-21T22:18:12.846Z,2.20
2018-09-21T22:20:42.137Z,2.10
2018-09-21T22:23:11.252Z,1.60
2018-09-21T22:25:40.321Z,2.37
2018-09-21T22:28:09.525Z,1.97
2018-09-21T22:30:38.552Z,1.90
2018-09-21T22:33:07.600Z,1.90
2018-09-21T22:35:36.587Z,2.07
2018-09-21T22:38:05.889Z,2.00
2018-09-21T22:40:34.869Z,2.20
2018-09-21T22:43:03.933Z,1.67
2018-09-21T22:45:32.846Z,2.00
2018-09-21T22:48:01.862Z,1.70
2018-09-21T22:50:30.833Z,1.67
2018-09-21T22:53:00.180Z,1.70
2018-09-21T22:55:29.265Z,2.20
2018-09-21T22:57:58.302Z,1.60
2018-09-21T23:00:27.601Z,1.80
2018-09-21T23:02:56.823Z,2.13
2018-09-21T23:05:25.838Z,2.03
2018-09-21T23:07:54.841Z,1.90
2018-09-21T23:10:23.907Z,1.90
2018-09-21T23:12:53.122Z,1.73
2018-09-21T23:15:22.014Z,1.80
2018-09-21T23:17:51.000Z,2.43
2018-09-21T23:20:20.231Z,2.27
2018-09-21T23:22:49.453Z,2.00
2018-09-21T23:25:18.601Z,1.90
2018-09-21T23:27:48.030Z,1.73
2018-09-21T23:30:17.078Z,1.80
2018-09-21T23:32:46.553Z,1.90
2018-09-21T23:35:15.727Z,1.80
2018-09-21T23:37:45.073Z,2.27
2018-09-21T23:40:14.114Z,1.90
2018-09-21T23:42:43.189Z,1.90
2018-09-21T23:45:12.526Z,2.20
2018-09-21T23:47:41.495Z,2.23
2018-09-21T23:50:10.513Z,1.87
2018-09-21T23:52:39.428Z,2.17
2018-09-21T23:55:08.636Z,2.00
2018-09-21T23:57:37.809Z,1.87
